Mississagi — CFG8050 — position and weather

sailwx.info

Track history (hours):
 
Tides and Currents Weather Stations Pressure Air Temp Water Temp Dewpoint Dewpoint Depression Visibility Wind Speed Wind Dir Waves Ship Positions

Mississagi

Last reported at 2016-Jan-03 00:05 UTC. Time now 2016-Feb-08 04:07 UTC.
Position N 43°25' W 079°03'.
Warning: this ship's position is 36 days out of date.

Length 189 m; draft 7.2 m.

Type: Cargo ship. MMSI: 316004940.

Date/timePositionNaut miles runAvg speedWind from/ knotsBaromVisibWave heightAir tempDewpointWater temp
2016-Jan-03 00:05N 43°25' W 079°03'611.5
2016-Jan-02 23:33N 43°23' W 079°12'  
2015-Dec-31 10:15N 43°17' W 079°32'811.1
2015-Dec-31 09:30N 43°16' W 079°21'7 7.1
2015-Dec-31 08:33N 43°13' W 079°13'2 1.7
2015-Dec-31 07:33N 43°11' W 079°12'3 3.2
2015-Dec-31 06:32N 43°08' W 079°12'0 0.3
2015-Dec-31 05:33N 43°08' W 079°12'  
2015-Dec-28 11:07N 42°45' W 079°42'610.8
2015-Dec-28 10:33N 42°44' W 079°50'1010.3
2015-Dec-28 09:33N 42°46' W 080°04'1 1.1
2015-Dec-28 08:33N 42°47' W 080°05'0 0.0
2015-Dec-28 07:33N 42°47' W 080°05'0 0.0
2015-Dec-28 06:33N 42°47' W 080°05'0 0.0
2015-Dec-28 05:33N 42°47' W 080°05'0 0.0
2015-Dec-28 04:33N 42°47' W 080°05'0 0.0
2015-Dec-28 03:33N 42°47' W 080°05'0 0.0
2015-Dec-28 02:33N 42°47' W 080°05'0 0.0
2015-Dec-28 01:33N 42°47' W 080°05'0 0.0
2015-Dec-28 00:33N 42°47' W 080°05'0 0.3
2015-Dec-27 23:33N 42°47' W 080°05'10 9.8
2015-Dec-27 22:33N 42°37' W 080°02'  
Track history (hours):
 
Tides and Currents Weather Stations Pressure Air Temp Water Temp Dewpoint Dewpoint Depression Visibility Wind Speed Wind Dir Waves Ship Positions

Mississagi

Last reported at 2016-Jan-03 00:05 UTC. Time now 2016-Feb-08 04:07 UTC.
Position N 43°25' W 079°03'.
Warning: this ship's position is 36 days out of date.

Length 189 m; draft 7.2 m.

Type: Cargo ship. MMSI: 316004940.

Date/timePositionNaut miles runAvg speedWind from/ knotsBaromVisibWave heightAir tempDewpointWater temp
2016-Jan-03 00:05N 43°25' W 079°03'611.5
2016-Jan-02 23:33N 43°23' W 079°12'  
2015-Dec-31 10:15N 43°17' W 079°32'811.1
2015-Dec-31 09:30N 43°16' W 079°21'7 7.1
2015-Dec-31 08:33N 43°13' W 079°13'2 1.7
2015-Dec-31 07:33N 43°11' W 079°12'3 3.2
2015-Dec-31 06:32N 43°08' W 079°12'0 0.3
2015-Dec-31 05:33N 43°08' W 079°12'  
2015-Dec-28 11:07N 42°45' W 079°42'610.8
2015-Dec-28 10:33N 42°44' W 079°50'1010.3
2015-Dec-28 09:33N 42°46' W 080°04'1 1.1
2015-Dec-28 08:33N 42°47' W 080°05'0 0.0
2015-Dec-28 07:33N 42°47' W 080°05'0 0.0
2015-Dec-28 06:33N 42°47' W 080°05'0 0.0
2015-Dec-28 05:33N 42°47' W 080°05'0 0.0
2015-Dec-28 04:33N 42°47' W 080°05'0 0.0
2015-Dec-28 03:33N 42°47' W 080°05'0 0.0
2015-Dec-28 02:33N 42°47' W 080°05'0 0.0
2015-Dec-28 01:33N 42°47' W 080°05'0 0.0
2015-Dec-28 00:33N 42°47' W 080°05'0 0.3
2015-Dec-27 23:33N 42°47' W 080°05'10 9.8
2015-Dec-27 22:33N 42°37' W 080°02'  

Dump ship's entire track history